sensor_id;sensor_type;location;lat;lon;timestamp;pressure;altitude;pressure_sealevel;temperature;humidity
48778;BME280;34578;0.000;0.000;2022-11-20T00:00:45;96227.25;;;18.23;63.02
48778;BME280;34578;0.000;0.000;2022-11-20T00:05:45;96233.16;;;18.25;62.81
48778;BME280;34578;0.000;0.000;2022-11-20T00:10:46;96229.78;;;18.24;62.84
48778;BME280;34578;0.000;0.000;2022-11-20T00:15:46;96236.56;;;18.24;62.98
48778;BME280;34578;0.000;0.000;2022-11-20T00:20:47;96245.84;;;18.25;63.04
48778;BME280;34578;0.000;0.000;2022-11-20T00:25:47;96251.72;;;18.25;63.07
48778;BME280;34578;0.000;0.000;2022-11-20T00:30:47;96245.84;;;18.25;63.11
48778;BME280;34578;0.000;0.000;2022-11-20T00:35:48;96254.25;;;18.27;63.43
48778;BME280;34578;0.000;0.000;2022-11-20T00:40:54;96245.81;;;18.28;63.00
48778;BME280;34578;0.000;0.000;2022-11-20T00:50:59;96240.75;;;18.25;63.22
48778;BME280;34578;0.000;0.000;2022-11-20T00:56:03;96250.03;;;18.26;63.20
48778;BME280;34578;0.000;0.000;2022-11-20T01:01:09;96255.09;;;18.23;62.36
48778;BME280;34578;0.000;0.000;2022-11-20T01:11:14;96240.78;;;18.19;62.39
48778;BME280;34578;0.000;0.000;2022-11-20T01:16:20;96256.81;;;18.24;63.84
48778;BME280;34578;0.000;0.000;2022-11-20T01:21:33;96257.66;;;18.26;63.22
48778;BME280;34578;0.000;0.000;2022-11-20T01:26:35;96246.66;;;18.27;63.11
48778;BME280;34578;0.000;0.000;2022-11-20T01:31:36;96254.28;;;18.24;63.49
48778;BME280;34578;0.000;0.000;2022-11-20T01:36:37;96249.22;;;18.21;62.94
48778;BME280;34578;0.000;0.000;2022-11-20T01:41:38;96247.53;;;18.21;63.31
48778;BME280;34578;0.000;0.000;2022-11-20T01:47:00;96255.09;;;18.23;62.03
48778;BME280;34578;0.000;0.000;2022-11-20T01:52:05;96250.91;;;18.22;63.14
48778;BME280;34578;0.000;0.000;2022-11-20T01:57:09;96260.22;;;18.20;63.45
48778;BME280;34578;0.000;0.000;2022-11-20T02:02:11;96261.84;;;18.25;63.22
48778;BME280;34578;0.000;0.000;2022-11-20T02:07:11;96259.31;;;18.25;63.15
48778;BME280;34578;0.000;0.000;2022-11-20T02:12:11;96249.22;;;18.24;63.22
48778;BME280;34578;0.000;0.000;2022-11-20T02:17:32;96257.66;;;18.23;62.68
48778;BME280;34578;0.000;0.000;2022-11-20T02:22:38;96247.50;;;18.23;62.46
48778;BME280;34578;0.000;0.000;2022-11-20T02:27:42;96242.44;;;18.23;62.43
48778;BME280;34578;0.000;0.000;2022-11-20T02:32:43;96241.63;;;18.22;62.70
48778;BME280;34578;0.000;0.000;2022-11-20T02:37:44;96249.22;;;18.24;63.23
48778;BME280;34578;0.000;0.000;2022-11-20T02:42:46;96245.84;;;18.25;63.61
48778;BME280;34578;0.000;0.000;2022-11-20T02:47:46;96245.84;;;18.25;63.21
48778;BME280;34578;0.000;0.000;2022-11-20T02:52:46;96235.69;;;18.25;63.30
48778;BME280;34578;0.000;0.000;2022-11-20T02:57:47;96228.94;;;18.24;63.07
48778;BME280;34578;0.000;0.000;2022-11-20T03:02:47;96234.84;;;18.23;62.92
48778;BME280;34578;0.000;0.000;2022-11-20T03:07:48;96246.69;;;18.24;63.04
48778;BME280;34578;0.000;0.000;2022-11-20T03:12:53;96246.69;;;18.22;62.87
48778;BME280;34578;0.000;0.000;2022-11-20T03:17:54;96236.59;;;18.19;63.30
48778;BME280;34578;0.000;0.000;2022-11-20T03:22:55;96236.56;;;18.22;63.48
48778;BME280;34578;0.000;0.000;2022-11-20T03:27:56;96240.75;;;18.25;63.38
48778;BME280;34578;0.000;0.000;2022-11-20T03:32:56;96237.38;;;18.26;63.43
48778;BME280;34578;0.000;0.000;2022-11-20T03:37:57;96236.56;;;18.21;63.11
48778;BME280;34578;0.000;0.000;2022-11-20T03:42:57;96242.47;;;18.21;63.36
48778;BME280;34578;0.000;0.000;2022-11-20T03:47:58;96236.56;;;18.21;63.18
48778;BME280;34578;0.000;0.000;2022-11-20T03:52:58;96243.28;;;18.22;62.91
48778;BME280;34578;0.000;0.000;2022-11-20T03:57:59;96238.25;;;18.19;63.27
48778;BME280;34578;0.000;0.000;2022-11-20T04:03:00;96251.75;;;18.22;63.49
48778;BME280;34578;0.000;0.000;2022-11-20T04:08:01;96249.22;;;18.24;63.73
48778;BME280;34578;0.000;0.000;2022-11-20T04:13:01;96254.28;;;18.24;63.30
48778;BME280;34578;0.000;0.000;2022-11-20T04:18:02;96245.84;;;18.19;63.15
48778;BME280;34578;0.000;0.000;2022-11-20T04:23:02;96246.72;;;18.18;63.35
48778;BME280;34578;0.000;0.000;2022-11-20T04:28:02;96249.25;;;18.18;63.46
48778;BME280;34578;0.000;0.000;2022-11-20T04:33:03;96242.50;;;18.17;63.35
48778;BME280;34578;0.000;0.000;2022-11-20T04:38:04;96247.56;;;18.17;63.29
48778;BME280;34578;0.000;0.000;2022-11-20T04:43:04;96240.78;;;18.19;63.49
48778;BME280;34578;0.000;0.000;2022-11-20T04:48:05;96231.44;;;18.25;63.35
48778;BME280;34578;0.000;0.000;2022-11-20T04:53:05;96237.38;;;18.24;63.12
48778;BME280;34578;0.000;0.000;2022-11-20T04:58:06;96241.63;;;18.21;63.39
48778;BME280;34578;0.000;0.000;2022-11-20T05:03:06;96233.19;;;18.19;63.03
48778;BME280;34578;0.000;0.000;2022-11-20T05:08:07;96239.13;;;18.19;63.17
48778;BME280;34578;0.000;0.000;2022-11-20T05:13:07;96240.78;;;18.19;63.35
48778;BME280;34578;0.000;0.000;2022-11-20T05:18:07;96244.19;;;18.18;63.03
48778;BME280;34578;0.000;0.000;2022-11-20T05:23:08;96240.78;;;18.19;62.99
48778;BME280;34578;0.000;0.000;2022-11-20T05:28:08;96239.06;;;18.25;63.63
48778;BME280;34578;0.000;0.000;2022-11-20T05:33:08;96245.81;;;18.28;62.97
48778;BME280;34578;0.000;0.000;2022-11-20T05:38:09;96239.09;;;18.24;63.32
48778;BME280;34578;0.000;0.000;2022-11-20T05:43:10;96240.75;;;18.22;62.94
48778;BME280;34578;0.000;0.000;2022-11-20T05:48:10;96250.03;;;18.24;62.88
48778;BME280;34578;0.000;0.000;2022-11-20T05:53:10;96237.41;;;18.20;63.10
48778;BME280;34578;0.000;0.000;2022-11-20T05:58:11;96227.31;;;18.17;63.04
48778;BME280;34578;0.000;0.000;2022-11-20T06:03:11;96235.72;;;18.19;63.26
48778;BME280;34578;0.000;0.000;2022-11-20T06:08:12;96234.00;;;18.24;63.39
48778;BME280;34578;0.000;0.000;2022-11-20T06:13:12;96234.84;;;18.26;63.43
48778;BME280;34578;0.000;0.000;2022-11-20T06:18:12;96240.72;;;18.28;63.19
48778;BME280;34578;0.000;0.000;2022-11-20T06:23:13;96248.34;;;18.26;63.36
48778;BME280;34578;0.000;0.000;2022-11-20T06:28:13;96234.00;;;18.24;63.69
48778;BME280;34578;0.000;0.000;2022-11-20T06:33:13;96229.78;;;18.26;62.25
48778;BME280;34578;0.000;0.000;2022-11-20T06:38:14;96233.97;;;18.30;62.39
48778;BME280;34578;0.000;0.000;2022-11-20T06:43:14;96252.59;;;18.20;63.21
48778;BME280;34578;0.000;0.000;2022-11-20T06:48:14;96254.25;;;18.30;61.86
48778;BME280;34578;0.000;0.000;2022-11-20T06:53:15;96259.31;;;18.33;59.80
48778;BME280;34578;0.000;0.000;2022-11-20T06:58:16;96252.56;;;18.32;60.43
48778;BME280;34578;0.000;0.000;2022-11-20T07:03:17;96250.03;;;18.30;62.39
48778;BME280;34578;0.000;0.000;2022-11-20T07:08:17;96259.31;;;18.33;62.34
48778;BME280;34578;0.000;0.000;2022-11-20T07:13:17;96259.31;;;18.33;62.71
48778;BME280;34578;0.000;0.000;2022-11-20T07:18:18;96268.59;;;18.34;62.06
48778;BME280;34578;0.000;0.000;2022-11-20T07:23:18;96279.59;;;18.33;62.12
48778;BME280;34578;0.000;0.000;2022-11-20T07:28:19;96272.81;;;18.35;63.41
48778;BME280;34578;0.000;0.000;2022-11-20T07:33:19;96281.22;;;18.44;63.62
48778;BME280;34578;0.000;0.000;2022-11-20T07:38:20;96276.22;;;18.26;64.90
48778;BME280;34578;0.000;0.000;2022-11-20T07:43:20;96272.00;;;18.31;63.61
48778;BME280;34578;0.000;0.000;2022-11-20T07:48:21;96255.97;;;18.25;64.04
48778;BME280;34578;0.000;0.000;2022-11-20T07:53:22;96264.38;;;18.36;62.89
48778;BME280;34578;0.000;0.000;2022-11-20T07:58:22;96282.09;;;18.34;64.05
48778;BME280;34578;0.000;0.000;2022-11-20T08:03:23;96281.28;;;18.32;64.46
48778;BME280;34578;0.000;0.000;2022-11-20T08:08:24;96293.09;;;18.29;62.03
48778;BME280;34578;0.000;0.000;2022-11-20T08:13:24;96301.53;;;18.32;64.07
48778;BME280;34578;0.000;0.000;2022-11-20T08:18:43;96320.16;;;18.21;62.97
48778;BME280;34578;0.000;0.000;2022-11-20T08:23:43;96310.97;;;18.08;62.45
48778;BME280;34578;0.000;0.000;2022-11-20T08:28:44;96316.91;;;18.01;60.53
48778;BME280;34578;0.000;0.000;2022-11-20T08:33:45;96321.16;;;17.94;59.54
48778;BME280;34578;0.000;0.000;2022-11-20T08:39:03;96322.00;;;17.89;58.26
48778;BME280;34578;0.000;0.000;2022-11-20T08:44:06;96331.25;;;17.96;59.58
48778;BME280;34578;0.000;0.000;2022-11-20T08:49:09;96337.09;;;18.13;61.14
48778;BME280;34578;0.000;0.000;2022-11-20T08:54:10;96341.31;;;18.14;59.18
48778;BME280;34578;0.000;0.000;2022-11-20T08:59:11;96333.84;;;17.90;55.32
48778;BME280;34578;0.000;0.000;2022-11-20T09:04:11;96343.94;;;17.93;56.82
48778;BME280;34578;0.000;0.000;2022-11-20T09:09:14;96342.22;;;18.01;58.08
48778;BME280;34578;0.000;0.000;2022-11-20T09:14:14;96350.63;;;18.06;59.39
48778;BME280;34578;0.000;0.000;2022-11-20T09:19:15;96347.25;;;18.10;60.05
48778;BME280;34578;0.000;0.000;2022-11-20T09:24:15;96347.28;;;18.07;60.62
48778;BME280;34578;0.000;0.000;2022-11-20T09:29:16;96360.75;;;18.12;60.84
48778;BME280;34578;0.000;0.000;2022-11-20T09:34:16;96358.22;;;18.12;61.02
48778;BME280;34578;0.000;0.000;2022-11-20T09:39:17;96364.09;;;18.14;60.79
48778;BME280;34578;0.000;0.000;2022-11-20T09:55:03;96364.16;;;18.08;61.74
48778;BME280;34578;0.000;0.000;2022-11-20T10:00:06;96374.25;;;18.09;61.86
48778;BME280;34578;0.000;0.000;2022-11-20T10:05:22;96377.66;;;18.10;61.87
48778;BME280;34578;0.000;0.000;2022-11-20T10:10:40;96372.59;;;18.07;62.06
48778;BME280;34578;0.000;0.000;2022-11-20T10:21:08;96371.72;;;18.11;62.11
48778;BME280;34578;0.000;0.000;2022-11-20T10:31:50;96361.63;;;18.08;62.24
48778;BME280;34578;0.000;0.000;2022-11-20T10:36:58;96356.56;;;18.08;62.44
48778;BME280;34578;0.000;0.000;2022-11-20T10:42:00;96360.78;;;18.03;62.58
48778;BME280;34578;0.000;0.000;2022-11-20T10:47:01;96358.25;;;18.01;62.74
48778;BME280;34578;0.000;0.000;2022-11-20T10:52:13;96350.63;;;18.09;62.45
48778;BME280;34578;0.000;0.000;2022-11-20T10:57:24;96344.72;;;18.10;62.16
48778;BME280;34578;0.000;0.000;2022-11-20T11:02:39;96332.91;;;18.09;62.46
48778;BME280;34578;0.000;0.000;2022-11-20T11:07:42;96331.22;;;18.08;62.33
48778;BME280;34578;0.000;0.000;2022-11-20T11:12:46;96325.31;;;18.03;62.70
48778;BME280;34578;0.000;0.000;2022-11-20T11:17:48;96326.16;;;18.00;62.54
48778;BME280;34578;0.000;0.000;2022-11-20T11:22:49;96310.16;;;18.00;62.67
48778;BME280;34578;0.000;0.000;2022-11-20T11:27:51;96310.16;;;17.97;62.73
48778;BME280;34578;0.000;0.000;2022-11-20T11:33:03;96305.06;;;18.04;62.66
48778;BME280;34578;0.000;0.000;2022-11-20T11:38:10;96291.53;;;18.07;62.29
48778;BME280;34578;0.000;0.000;2022-11-20T11:43:20;96285.63;;;18.05;62.81
48778;BME280;34578;0.000;0.000;2022-11-20T11:48:41;96275.50;;;18.00;62.80
48778;BME280;34578;0.000;0.000;2022-11-20T11:53:42;96259.50;;;17.97;62.93
48778;BME280;34578;0.000;0.000;2022-11-20T11:58:47;96254.44;;;17.97;63.03
48778;BME280;34578;0.000;0.000;2022-11-20T12:03:55;96246.03;;;17.92;62.97
48778;BME280;34578;0.000;0.000;2022-11-20T12:09:08;96246.00;;;17.95;63.02
48778;BME280;34578;0.000;0.000;2022-11-20T12:14:33;96246.81;;;18.01;63.12
48778;BME280;34578;0.000;0.000;2022-11-20T12:19:34;96234.13;;;18.03;62.99
48778;BME280;34578;0.000;0.000;2022-11-20T12:30:15;96246.00;;;17.98;63.04
48778;BME280;34578;0.000;0.000;2022-11-20T12:35:29;96246.84;;;17.95;63.18
48778;BME280;34578;0.000;0.000;2022-11-20T12:56:50;96234.16;;;17.97;63.00
48778;BME280;34578;0.000;0.000;2022-11-20T13:02:00;96244.28;;;18.03;62.96
48778;BME280;34578;0.000;0.000;2022-11-20T13:07:08;96240.91;;;18.01;63.03
48778;BME280;34578;0.000;0.000;2022-11-20T13:12:33;96238.38;;;18.02;62.83
48778;BME280;34578;0.000;0.000;2022-11-20T13:27:47;96213.88;;;18.03;62.55
48778;BME280;34578;0.000;0.000;2022-11-20T13:33:05;96205.34;;;18.13;62.48
48778;BME280;34578;0.000;0.000;2022-11-20T13:38:14;96192.69;;;18.16;62.20
48778;BME280;34578;0.000;0.000;2022-11-20T13:48:26;96194.38;;;18.14;62.15
48778;BME280;34578;0.000;0.000;2022-11-20T13:54:02;96199.47;;;18.11;62.40
48778;BME280;34578;0.000;0.000;2022-11-20T13:59:33;96188.50;;;18.09;62.27
48778;BME280;34578;0.000;0.000;2022-11-20T14:04:48;96191.88;;;18.11;62.03
48778;BME280;34578;0.000;0.000;2022-11-20T14:09:51;96191.84;;;18.14;62.29
48778;BME280;34578;0.000;0.000;2022-11-20T14:14:53;96180.84;;;18.18;62.34
48778;BME280;34578;0.000;0.000;2022-11-20T14:19:58;96169.84;;;18.19;62.29
48778;BME280;34578;0.000;0.000;2022-11-20T14:30:02;96164.81;;;18.14;62.20
48778;BME280;34578;0.000;0.000;2022-11-20T14:35:08;96151.34;;;18.11;62.32
48778;BME280;34578;0.000;0.000;2022-11-20T14:40:28;96142.06;;;18.11;62.21
48778;BME280;34578;0.000;0.000;2022-11-20T14:45:29;96129.34;;;18.13;62.17
48778;BME280;34578;0.000;0.000;2022-11-20T14:50:29;96099.81;;;18.12;62.33
48778;BME280;34578;0.000;0.000;2022-11-20T14:55:36;96103.97;;;18.19;62.20
48778;BME280;34578;0.000;0.000;2022-11-20T15:00:37;96095.53;;;18.20;62.19
48778;BME280;34578;0.000;0.000;2022-11-20T15:05:45;96103.13;;;18.18;62.16
48778;BME280;34578;0.000;0.000;2022-11-20T15:10:48;96098.97;;;18.14;62.24
48778;BME280;34578;0.000;0.000;2022-11-20T15:15:50;96106.56;;;18.13;62.10
48778;BME280;34578;0.000;0.000;2022-11-20T15:20:54;96091.34;;;18.14;62.17
48778;BME280;34578;0.000;0.000;2022-11-20T15:25:55;96092.22;;;18.12;62.34
48778;BME280;34578;0.000;0.000;2022-11-20T15:30:56;96084.66;;;18.09;62.36
48778;BME280;34578;0.000;0.000;2022-11-20T15:35:57;96087.16;;;18.15;62.39
48778;BME280;34578;0.000;0.000;2022-11-20T15:40:57;96084.56;;;18.19;61.95
48778;BME280;34578;0.000;0.000;2022-11-20T15:46:04;96061.78;;;18.18;61.93
48778;BME280;34578;0.000;0.000;2022-11-20T15:56:13;96054.22;;;18.15;62.15
48778;BME280;34578;0.000;0.000;2022-11-20T16:01:18;96041.59;;;18.06;56.59
48778;BME280;34578;0.000;0.000;2022-11-20T16:06:19;96060.34;;;17.90;57.12
48778;BME280;34578;0.000;0.000;2022-11-20T16:11:20;96061.16;;;17.90;58.76
48778;BME280;34578;0.000;0.000;2022-11-20T16:21:26;96076.19;;;18.08;59.85
48778;BME280;34578;0.000;0.000;2022-11-20T16:26:31;96079.53;;;18.15;60.07
48778;BME280;34578;0.000;0.000;2022-11-20T16:31:32;96087.19;;;18.10;60.41
48778;BME280;34578;0.000;0.000;2022-11-20T16:36:33;96087.19;;;18.06;60.51
48778;BME280;34578;0.000;0.000;2022-11-20T16:41:34;96074.47;;;18.15;61.66
48778;BME280;34578;0.000;0.000;2022-11-20T16:46:34;96068.56;;;18.13;60.83
48778;BME280;34578;0.000;0.000;2022-11-20T16:51:35;96048.34;;;18.10;61.10
48778;BME280;34578;0.000;0.000;2022-11-20T16:56:36;96075.38;;;18.08;61.08
48778;BME280;34578;0.000;0.000;2022-11-20T17:01:36;96059.34;;;18.07;60.27
48778;BME280;34578;0.000;0.000;2022-11-20T17:06:42;96063.56;;;18.07;60.16
48778;BME280;34578;0.000;0.000;2022-11-20T17:11:47;96055.94;;;18.10;59.87
48778;BME280;34578;0.000;0.000;2022-11-20T17:16:47;96060.09;;;18.14;60.03
48778;BME280;34578;0.000;0.000;2022-11-20T17:21:48;96066.84;;;18.16;59.99
48778;BME280;34578;0.000;0.000;2022-11-20T17:26:48;96071.94;;;18.15;60.09
48778;BME280;34578;0.000;0.000;2022-11-20T17:31:49;96066.88;;;18.15;60.32
48778;BME280;34578;0.000;0.000;2022-11-20T17:36:49;96061.81;;;18.15;60.51
48778;BME280;34578;0.000;0.000;2022-11-20T17:41:50;96064.38;;;18.10;60.54
48778;BME280;34578;0.000;0.000;2022-11-20T17:47:10;96065.25;;;18.08;61.38
48778;BME280;34578;0.000;0.000;2022-11-20T17:52:11;96060.97;;;18.16;61.13
48778;BME280;34578;0.000;0.000;2022-11-20T17:57:11;96071.94;;;18.15;60.98
48778;BME280;34578;0.000;0.000;2022-11-20T18:02:30;96040.75;;;18.10;60.71
48778;BME280;34578;0.000;0.000;2022-11-20T18:07:30;96044.03;;;18.16;60.93
48778;BME280;34578;0.000;0.000;2022-11-20T18:12:31;96053.38;;;18.13;61.54
48778;BME280;34578;0.000;0.000;2022-11-20T18:17:31;96053.41;;;18.10;61.55
48778;BME280;34578;0.000;0.000;2022-11-20T18:22:32;96067.75;;;18.09;61.51
48778;BME280;34578;0.000;0.000;2022-11-20T18:27:32;96077.06;;;18.09;61.58
48778;BME280;34578;0.000;0.000;2022-11-20T18:32:33;96088.81;;;18.14;61.86
48778;BME280;34578;0.000;0.000;2022-11-20T18:37:34;96085.44;;;18.14;61.68
48778;BME280;34578;0.000;0.000;2022-11-20T18:42:35;96096.41;;;18.16;61.49
48778;BME280;34578;0.000;0.000;2022-11-20T18:47:54;96093.03;;;18.17;61.42
48778;BME280;34578;0.000;0.000;2022-11-20T18:52:55;96078.75;;;18.08;61.72
48778;BME280;34578;0.000;0.000;2022-11-20T18:57:55;96064.41;;;18.06;61.18
48778;BME280;34578;0.000;0.000;2022-11-20T19:02:56;96055.97;;;18.05;61.91
48778;BME280;34578;0.000;0.000;2022-11-20T19:07:56;96055.09;;;18.09;61.43
48778;BME280;34578;0.000;0.000;2022-11-20T19:12:56;96056.78;;;18.09;61.59
48778;BME280;34578;0.000;0.000;2022-11-20T19:17:57;96052.56;;;18.09;61.32
48778;BME280;34578;0.000;0.000;2022-11-20T19:23:00;96047.47;;;18.12;61.40
48778;BME280;34578;0.000;0.000;2022-11-20T19:28:00;96040.78;;;18.04;61.38
48778;BME280;34578;0.000;0.000;2022-11-20T19:33:01;96036.50;;;18.12;61.40
48778;BME280;34578;0.000;0.000;2022-11-20T19:38:01;96044.94;;;18.11;60.18
48778;BME280;34578;0.000;0.000;2022-11-20T19:43:02;96039.13;;;18.01;59.47
48778;BME280;34578;0.000;0.000;2022-11-20T19:48:04;96047.53;;;18.05;58.81
48778;BME280;34578;0.000;0.000;2022-11-20T19:53:05;96053.44;;;18.04;58.67
48778;BME280;34578;0.000;0.000;2022-11-20T19:58:06;96042.53;;;17.97;61.01
48778;BME280;34578;0.000;0.000;2022-11-20T20:03:06;96033.22;;;17.99;58.96
48778;BME280;34578;0.000;0.000;2022-11-20T20:08:07;96028.19;;;17.98;58.96
48778;BME280;34578;0.000;0.000;2022-11-20T20:13:07;96056.91;;;17.94;58.97
48778;BME280;34578;0.000;0.000;2022-11-20T20:18:07;96064.47;;;18.00;60.04
48778;BME280;34578;0.000;0.000;2022-11-20T20:23:08;96056.91;;;17.95;59.14
48778;BME280;34578;0.000;0.000;2022-11-20T20:28:08;96067.91;;;17.94;60.69
48778;BME280;34578;0.000;0.000;2022-11-20T20:33:09;96063.66;;;17.95;58.43
48778;BME280;34578;0.000;0.000;2022-11-20T20:38:09;96059.50;;;17.89;58.80
48778;BME280;34578;0.000;0.000;2022-11-20T20:43:09;96080.53;;;17.96;58.15
48778;BME280;34578;0.000;0.000;2022-11-20T20:48:10;96088.97;;;17.98;58.26
48778;BME280;34578;0.000;0.000;2022-11-20T20:53:10;96116.00;;;17.99;58.15
48778;BME280;34578;0.000;0.000;2022-11-20T20:58:10;96105.88;;;17.93;58.83
48778;BME280;34578;0.000;0.000;2022-11-20T21:03:11;96114.38;;;17.86;59.41
48778;BME280;34578;0.000;0.000;2022-11-20T21:08:11;96105.19;;;17.74;56.93
48778;BME280;34578;0.000;0.000;2022-11-20T21:13:22;96063.84;;;17.74;58.71
48778;BME280;34578;0.000;0.000;2022-11-20T21:18:23;96091.53;;;17.95;57.61
48778;BME280;34578;0.000;0.000;2022-11-20T21:23:24;96107.59;;;17.91;58.81
48778;BME280;34578;0.000;0.000;2022-11-20T21:28:24;96107.59;;;17.91;58.98
48778;BME280;34578;0.000;0.000;2022-11-20T21:33:25;96084.81;;;17.89;59.29
48778;BME280;34578;0.000;0.000;2022-11-20T21:38:25;96082.28;;;17.91;59.23
48778;BME280;34578;0.000;0.000;2022-11-20T21:43:25;96078.91;;;17.89;59.69
48778;BME280;34578;0.000;0.000;2022-11-20T21:48:30;96082.28;;;17.91;59.64
48778;BME280;34578;0.000;0.000;2022-11-20T21:53:31;96073.00;;;17.88;59.86
48778;BME280;34578;0.000;0.000;2022-11-20T21:58:33;96087.34;;;17.88;59.75
48778;BME280;34578;0.000;0.000;2022-11-20T22:03:34;96083.97;;;17.89;59.71
48778;BME280;34578;0.000;0.000;2022-11-20T22:08:36;96072.94;;;17.99;59.57
48778;BME280;34578;0.000;0.000;2022-11-20T22:13:36;96077.09;;;18.01;59.34
48778;BME280;34578;0.000;0.000;2022-11-20T22:18:56;96084.78;;;17.95;59.93
48778;BME280;34578;0.000;0.000;2022-11-20T22:23:58;96083.97;;;17.89;59.82
48778;BME280;34578;0.000;0.000;2022-11-20T22:28:58;96076.41;;;17.87;60.07
48778;BME280;34578;0.000;0.000;2022-11-20T22:34:00;96101.72;;;17.87;59.73
48778;BME280;34578;0.000;0.000;2022-11-20T22:39:02;96101.75;;;17.83;59.95
48778;BME280;34578;0.000;0.000;2022-11-20T22:44:05;96113.56;;;17.84;59.86
48778;BME280;34578;0.000;0.000;2022-11-20T22:49:06;96112.75;;;17.82;59.80
48778;BME280;34578;0.000;0.000;2022-11-20T22:54:10;96106.81;;;17.80;60.15
48778;BME280;34578;0.000;0.000;2022-11-20T22:59:11;96119.47;;;17.80;59.73
48778;BME280;34578;0.000;0.000;2022-11-20T23:04:11;96106.78;;;17.84;59.70
48778;BME280;34578;0.000;0.000;2022-11-20T23:09:12;96108.44;;;17.91;59.56
48778;BME280;34578;0.000;0.000;2022-11-20T23:14:13;96105.09;;;17.85;59.68
48778;BME280;34578;0.000;0.000;2022-11-20T23:19:14;96123.69;;;17.82;59.85
48778;BME280;34578;0.000;0.000;2022-11-20T23:24:14;96089.16;;;17.74;59.96
48778;BME280;34578;0.000;0.000;2022-11-20T23:29:15;96104.28;;;17.80;60.03
48778;BME280;34578;0.000;0.000;2022-11-20T23:34:15;96095.06;;;17.74;60.03
48778;BME280;34578;0.000;0.000;2022-11-20T23:39:16;96106.00;;;17.79;59.97
48778;BME280;34578;0.000;0.000;2022-11-20T23:44:16;96098.41;;;17.76;59.85
48778;BME280;34578;0.000;0.000;2022-11-20T23:49:16;96093.34;;;17.78;59.77
48778;BME280;34578;0.000;0.000;2022-11-20T23:54:17;96095.88;;;17.76;59.97
48778;BME280;34578;0.000;0.000;2022-11-20T23:59:17;96099.25;;;17.77;59.97
